createdAt,value
2023-02-13T00:00:07.125Z,40.20
2023-02-13T00:03:00.129Z,27.80
2023-02-13T00:05:32.355Z,42.70
2023-02-13T00:08:04.771Z,26.00
2023-02-13T00:10:36.963Z,15.10
2023-02-13T00:13:09.113Z,31.90
2023-02-13T00:15:41.473Z,36.30
2023-02-13T00:18:13.676Z,18.70
2023-02-13T00:20:46.174Z,47.40
2023-02-13T00:23:18.328Z,24.20
2023-02-13T00:25:50.486Z,43.30
2023-02-13T00:28:22.677Z,36.00
2023-02-13T00:30:54.956Z,31.20
2023-02-13T00:33:27.358Z,27.10
2023-02-13T00:36:08.300Z,44.70
2023-02-13T00:38:41.618Z,24.40
2023-02-13T00:41:14.267Z,29.10
2023-02-13T00:43:46.566Z,31.90
2023-02-13T00:46:19.325Z,26.10
2023-02-13T00:48:51.657Z,27.70
2023-02-13T00:51:23.938Z,31.70
2023-02-13T00:53:56.748Z,32.80
2023-02-13T00:56:29.118Z,33.00
2023-02-13T00:59:01.308Z,29.60
2023-02-13T01:01:33.611Z,26.60
2023-02-13T01:04:06.120Z,13.20
2023-02-13T01:06:38.357Z,18.80
2023-02-13T01:09:12.522Z,17.90
2023-02-13T01:11:44.779Z,20.70
2023-02-13T01:14:16.910Z,39.50
2023-02-13T01:16:49.081Z,23.10
2023-02-13T01:19:21.405Z,20.20
2023-02-13T01:21:53.551Z,19.00
2023-02-13T01:24:25.867Z,17.60
2023-02-13T01:26:58.061Z,22.70
2023-02-13T01:29:30.506Z,29.60
2023-02-13T01:32:05.282Z,19.20
2023-02-13T01:34:37.692Z,17.70
2023-02-13T01:37:09.821Z,22.00
2023-02-13T01:39:42.081Z,22.90
2023-02-13T01:42:18.956Z,24.60
2023-02-13T01:44:54.859Z,25.10
2023-02-13T01:47:32.489Z,30.60
2023-02-13T01:50:12.173Z,31.80
2023-02-13T01:52:49.255Z,23.00
2023-02-13T01:55:21.678Z,15.90
2023-02-13T01:57:59.187Z,15.10
2023-02-13T02:00:32.287Z,21.40
2023-02-13T02:03:15.318Z,13.00
2023-02-13T02:05:48.489Z,10.00
2023-02-13T02:08:21.261Z,17.70
2023-02-13T02:11:01.495Z,16.10
2023-02-13T02:13:35.098Z,12.90
2023-02-13T02:16:11.862Z,17.50
2023-02-13T02:18:44.094Z,12.10
2023-02-13T02:21:47.366Z,28.70
2023-02-13T02:24:47.547Z,17.10
2023-02-13T02:27:42.066Z,18.60
2023-02-13T02:30:41.498Z,14.80
2023-02-13T02:33:33.375Z,17.30
2023-02-13T02:36:19.113Z,20.20
2023-02-13T02:39:05.235Z,22.30
2023-02-13T02:41:50.072Z,18.90
2023-02-13T02:44:40.269Z,20.10
2023-02-13T02:47:38.058Z,19.60
2023-02-13T02:50:25.410Z,9.90
2023-02-13T02:53:12.982Z,15.70
2023-02-13T02:55:52.189Z,8.50
2023-02-13T02:58:47.731Z,8.20
2023-02-13T03:01:41.456Z,20.80
2023-02-13T03:04:38.744Z,13.80
2023-02-13T03:07:15.099Z,29.10
2023-02-13T03:10:08.874Z,9.20
2023-02-13T03:13:03.420Z,10.80
2023-02-13T03:15:58.608Z,9.80
2023-02-13T03:18:49.715Z,16.80
2023-02-13T03:21:55.776Z,18.50
2023-02-13T03:24:38.192Z,25.40
2023-02-13T03:27:16.677Z,22.40
2023-02-13T03:30:11.882Z,27.70
2023-02-13T03:32:53.091Z,21.00
2023-02-13T03:35:53.251Z,20.10
2023-02-13T03:38:31.270Z,17.20
2023-02-13T03:41:21.083Z,31.10
2023-02-13T03:44:09.495Z,13.30
2023-02-13T03:46:45.455Z,12.60
2023-02-13T03:49:40.723Z,36.20
2023-02-13T03:52:19.284Z,56.10
2023-02-13T03:55:12.456Z,13.00
2023-02-13T03:58:05.207Z,12.50
2023-02-13T04:00:42.080Z,14.90
2023-02-13T04:03:21.135Z,15.40
2023-02-13T04:05:58.188Z,26.70
2023-02-13T04:08:30.760Z,20.80
2023-02-13T04:11:11.168Z,53.30
2023-02-13T04:13:49.326Z,27.40
2023-02-13T04:16:28.849Z,28.40
2023-02-13T04:19:02.329Z,37.90
2023-02-13T04:21:37.463Z,59.00
2023-02-13T04:24:11.209Z,70.80
2023-02-13T04:26:45.154Z,155.00
2023-02-13T04:29:17.322Z,99.00
2023-02-13T04:31:49.955Z,40.10
2023-02-13T04:34:22.533Z,45.30
2023-02-13T04:36:54.650Z,16.70
2023-02-13T04:39:26.795Z,17.60
2023-02-13T04:41:58.936Z,24.30
2023-02-13T04:44:31.052Z,21.20
2023-02-13T04:47:03.347Z,27.10
2023-02-13T04:49:35.564Z,28.90
2023-02-13T04:52:08.115Z,24.20
2023-02-13T04:54:40.313Z,16.30
2023-02-13T04:57:12.570Z,21.30
2023-02-13T04:59:44.682Z,14.00
2023-02-13T05:02:16.920Z,32.80
2023-02-13T05:04:49.084Z,26.50
2023-02-13T05:07:21.390Z,20.40
2023-02-13T05:09:53.471Z,12.70
2023-02-13T05:12:25.704Z,10.60
2023-02-13T05:14:57.919Z,12.30
2023-02-13T05:17:30.118Z,14.10
2023-02-13T05:20:02.704Z,20.10
2023-02-13T05:22:52.801Z,17.80
2023-02-13T05:25:25.048Z,7.80
2023-02-13T05:27:57.289Z,16.10
2023-02-13T05:30:29.792Z,19.70
2023-02-13T05:33:01.986Z,8.70
2023-02-13T05:35:34.133Z,18.30
2023-02-13T05:38:06.230Z,22.00
2023-02-13T05:40:38.419Z,19.90
2023-02-13T05:43:10.636Z,43.90
2023-02-13T05:45:42.829Z,26.30
2023-02-13T05:48:15.053Z,25.30
2023-02-13T05:50:49.173Z,32.40
2023-02-13T05:53:21.359Z,17.10
2023-02-13T05:55:53.908Z,24.00
2023-02-13T05:58:26.103Z,11.20
2023-02-13T06:01:00.488Z,11.70
2023-02-13T06:03:34.005Z,23.80
2023-02-13T06:06:06.830Z,10.30
2023-02-13T06:08:39.355Z,24.50
2023-02-13T06:11:12.170Z,23.60
2023-02-13T06:13:44.358Z,28.60
2023-02-13T06:16:16.745Z,23.00
2023-02-13T06:18:49.042Z,27.50
2023-02-13T06:21:22.550Z,23.80
2023-02-13T06:23:54.949Z,9.00
2023-02-13T06:26:27.117Z,24.00
2023-02-13T06:28:59.364Z,33.40
2023-02-13T06:31:31.568Z,17.90
2023-02-13T06:34:04.162Z,8.70
2023-02-13T06:36:37.684Z,15.10
2023-02-13T06:39:10.468Z,7.60
2023-02-13T06:41:42.592Z,8.90
2023-02-13T06:44:14.736Z,11.60
2023-02-13T06:46:46.954Z,8.90
2023-02-13T06:49:19.195Z,12.40
2023-02-13T06:51:51.417Z,12.20
2023-02-13T06:54:31.570Z,6.60
2023-02-13T06:57:13.440Z,6.00
2023-02-13T06:59:45.634Z,8.60
2023-02-13T07:02:17.882Z,12.20
2023-02-13T07:04:49.971Z,19.10
2023-02-13T07:07:22.241Z,10.60
2023-02-13T07:09:54.433Z,6.90
2023-02-13T07:12:26.755Z,27.10
2023-02-13T07:14:58.871Z,39.60
2023-02-13T07:17:31.451Z,38.20
2023-02-13T07:20:04.644Z,54.60
2023-02-13T07:22:37.534Z,52.10
2023-02-13T07:25:10.396Z,85.40
2023-02-13T07:27:42.889Z,180.30
2023-02-13T07:30:17.549Z,85.70
2023-02-13T07:32:51.141Z,215.90
2023-02-13T07:35:23.292Z,199.80
2023-02-13T07:37:57.294Z,133.50
2023-02-13T07:40:29.618Z,127.90
2023-02-13T07:43:03.326Z,104.20
2023-02-13T07:45:35.544Z,97.30
2023-02-13T07:48:07.892Z,25.60
2023-02-13T07:50:40.085Z,16.50
2023-02-13T07:53:12.257Z,106.10
2023-02-13T07:55:44.368Z,227.10
2023-02-13T07:58:16.582Z,162.50
2023-02-13T08:00:48.739Z,172.70
2023-02-13T08:03:20.943Z,90.20
2023-02-13T08:05:53.287Z,68.40
2023-02-13T08:08:25.422Z,33.10
2023-02-13T08:11:15.971Z,55.80
2023-02-13T08:13:48.113Z,72.40
2023-02-13T08:16:20.398Z,41.70
2023-02-13T08:18:52.595Z,39.30
2023-02-13T08:21:24.716Z,24.20
2023-02-13T08:23:57.395Z,38.80
2023-02-13T08:26:32.021Z,63.30
2023-02-13T08:29:04.723Z,44.90
2023-02-13T08:31:37.194Z,23.50
2023-02-13T08:34:09.905Z,30.00
2023-02-13T08:36:42.788Z,30.00
2023-02-13T08:39:15.035Z,22.50
2023-02-13T08:41:47.207Z,27.90
2023-02-13T08:44:19.344Z,27.50
2023-02-13T08:46:51.564Z,20.00
2023-02-13T08:49:23.847Z,37.60
2023-02-13T08:51:56.057Z,22.90
2023-02-13T08:54:28.992Z,17.10
2023-02-13T08:57:01.133Z,12.60
2023-02-13T08:59:33.356Z,8.10
2023-02-13T09:02:05.521Z,16.70
2023-02-13T09:04:37.690Z,32.10
2023-02-13T09:07:09.910Z,47.20
2023-02-13T09:09:42.078Z,22.10
2023-02-13T09:12:14.328Z,46.70
2023-02-13T09:14:46.445Z,12.30
2023-02-13T09:17:19.863Z,21.40
2023-02-13T09:19:52.126Z,36.60
2023-02-13T09:22:24.327Z,20.60
2023-02-13T09:24:56.474Z,16.90
2023-02-13T09:27:28.796Z,16.30
2023-02-13T09:30:01.120Z,17.90
2023-02-13T09:32:34.352Z,13.10
2023-02-13T09:35:07.690Z,25.00
2023-02-13T09:37:39.900Z,24.10
2023-02-13T09:40:22.261Z,17.60
2023-02-13T09:43:02.467Z,20.60
2023-02-13T09:45:35.827Z,14.90
2023-02-13T09:48:11.848Z,10.00
2023-02-13T09:50:44.273Z,16.50
2023-02-13T09:53:24.873Z,36.30
2023-02-13T09:56:07.039Z,28.10
2023-02-13T09:58:47.505Z,21.60
2023-02-13T10:01:27.534Z,23.30
2023-02-13T10:04:18.464Z,13.10
2023-02-13T10:06:57.080Z,15.90
2023-02-13T10:09:38.771Z,27.70
2023-02-13T10:12:22.177Z,9.40
2023-02-13T10:15:06.559Z,42.70
2023-02-13T10:17:44.029Z,47.30
2023-02-13T10:20:29.891Z,49.50
2023-02-13T10:23:11.389Z,69.60
2023-02-13T10:25:50.129Z,79.10
2023-02-13T10:28:33.840Z,69.60
2023-02-13T10:31:11.556Z,39.60
2023-02-13T10:34:01.863Z,27.20
2023-02-13T10:36:38.402Z,19.10
2023-02-13T10:39:25.532Z,20.20
2023-02-13T10:42:05.836Z,23.00
2023-02-13T10:44:49.903Z,24.50
2023-02-13T10:50:15.356Z,24.10
2023-02-13T10:52:59.661Z,22.00
2023-02-13T10:56:07.296Z,35.60
2023-02-13T10:58:56.380Z,26.20
2023-02-13T11:01:34.357Z,21.60
2023-02-13T11:04:09.891Z,21.40
2023-02-13T11:06:47.776Z,31.00
2023-02-13T11:09:21.123Z,35.50
2023-02-13T11:11:53.904Z,12.30
2023-02-13T11:14:27.786Z,13.90
2023-02-13T11:17:03.360Z,8.90
2023-02-13T11:19:39.856Z,6.60
2023-02-13T11:22:16.402Z,6.30
2023-02-13T11:24:57.450Z,5.80
2023-02-13T11:27:33.101Z,4.80
2023-02-13T11:30:08.894Z,6.70
2023-02-13T11:32:41.027Z,6.20
2023-02-13T11:35:31.729Z,5.20
2023-02-13T11:38:24.251Z,6.40
2023-02-13T11:41:09.843Z,6.00
2023-02-13T11:43:50.035Z,7.60
2023-02-13T11:46:24.478Z,12.40
2023-02-13T11:49:05.188Z,18.10
2023-02-13T11:51:44.043Z,8.30
2023-02-13T11:54:30.309Z,10.20
2023-02-13T11:57:06.066Z,8.30
2023-02-13T11:59:45.095Z,6.80
2023-02-13T12:02:20.566Z,13.50
2023-02-13T12:04:54.411Z,13.80
2023-02-13T12:07:30.479Z,6.40
2023-02-13T12:10:10.350Z,5.70
2023-02-13T12:12:47.818Z,6.00
2023-02-13T12:15:22.955Z,6.00
2023-02-13T12:18:05.752Z,6.40
2023-02-13T12:20:49.281Z,5.40
2023-02-13T12:23:32.046Z,5.60
2023-02-13T12:26:17.554Z,3.80
2023-02-13T12:29:02.406Z,5.30
2023-02-13T12:31:52.105Z,4.70
2023-02-13T12:34:52.527Z,5.50
2023-02-13T12:37:46.971Z,6.20
2023-02-13T12:40:39.238Z,4.80
2023-02-13T12:43:55.529Z,4.40
2023-02-13T12:46:32.206Z,4.50
2023-02-13T12:49:20.609Z,3.70
2023-02-13T12:52:07.392Z,5.20
2023-02-13T12:54:58.789Z,6.40
2023-02-13T12:57:56.866Z,9.30
2023-02-13T13:00:43.114Z,6.90
2023-02-13T13:03:44.102Z,10.90
2023-02-13T13:06:54.161Z,4.10
2023-02-13T13:10:08.338Z,5.10
2023-02-13T13:12:51.881Z,4.40
2023-02-13T13:15:34.130Z,4.80
2023-02-13T13:18:20.405Z,5.30
2023-02-13T13:21:12.112Z,5.70
2023-02-13T13:23:51.181Z,6.00
2023-02-13T13:26:32.286Z,4.10
2023-02-13T13:29:08.758Z,4.00
2023-02-13T13:31:41.873Z,3.80
2023-02-13T13:34:24.565Z,5.20
2023-02-13T13:37:04.336Z,4.20
2023-02-13T13:39:50.662Z,3.80
2023-02-13T13:42:28.946Z,4.40
2023-02-13T13:45:23.137Z,13.70
2023-02-13T13:48:25.955Z,4.30
2023-02-13T13:51:00.612Z,4.10
2023-02-13T13:53:33.222Z,10.70
2023-02-13T13:56:11.816Z,5.50
2023-02-13T13:58:46.636Z,4.70
2023-02-13T14:01:29.482Z,8.30
2023-02-13T14:04:03.782Z,9.70
2023-02-13T14:07:06.748Z,5.00
2023-02-13T14:09:44.780Z,4.20
2023-02-13T14:12:47.283Z,3.50
2023-02-13T14:15:55.206Z,4.30
2023-02-13T14:18:29.077Z,4.30
2023-02-13T14:21:03.675Z,3.70
2023-02-13T14:23:53.345Z,4.10
2023-02-13T14:26:42.822Z,4.50
2023-02-13T14:29:35.479Z,4.40
2023-02-13T14:32:21.154Z,4.00
2023-02-13T14:35:01.236Z,10.30
2023-02-13T14:37:40.413Z,6.40
2023-02-13T14:40:47.252Z,13.80
2023-02-13T14:43:31.786Z,10.50
2023-02-13T14:46:16.153Z,7.40
2023-02-13T14:48:58.236Z,7.70
2023-02-13T14:51:37.093Z,5.50
2023-02-13T14:54:18.656Z,10.20
2023-02-13T14:56:54.796Z,7.60
2023-02-13T14:59:32.765Z,12.40
2023-02-13T15:02:13.738Z,5.50
2023-02-13T15:04:50.372Z,25.20
2023-02-13T15:07:27.278Z,131.80
2023-02-13T15:10:03.882Z,68.30
2023-02-13T15:12:38.274Z,91.90
2023-02-13T15:15:26.643Z,94.10
2023-02-13T15:18:02.967Z,170.90
2023-02-13T15:20:38.150Z,90.60
2023-02-13T15:23:19.378Z,108.50
2023-02-13T15:26:00.813Z,50.20
2023-02-13T15:28:34.332Z,113.40
2023-02-13T15:31:10.465Z,80.30
2023-02-13T15:33:48.753Z,41.80
2023-02-13T15:36:22.944Z,21.80
2023-02-13T15:39:04.993Z,53.70
2023-02-13T15:41:39.825Z,92.50
2023-02-13T15:44:20.901Z,70.60
2023-02-13T15:46:55.047Z,35.20
2023-02-13T15:49:28.568Z,101.90
2023-02-13T15:52:09.978Z,49.60
2023-02-13T15:54:51.640Z,19.70
2023-02-13T15:57:25.607Z,59.30
2023-02-13T16:00:00.662Z,41.80
2023-02-13T16:02:47.722Z,28.40
2023-02-13T16:05:38.333Z,19.80
2023-02-13T16:08:33.387Z,36.60
2023-02-13T16:11:33.918Z,21.80
2023-02-13T16:14:17.978Z,19.40
2023-02-13T16:16:54.539Z,14.90
2023-02-13T16:19:34.963Z,8.00
2023-02-13T16:22:18.662Z,5.60
2023-02-13T16:24:54.362Z,7.00
2023-02-13T16:27:29.578Z,6.30
2023-02-13T16:32:38.346Z,7.20
2023-02-13T16:35:29.214Z,7.50
2023-02-13T16:38:03.346Z,6.40
2023-02-13T16:40:39.637Z,14.90
2023-02-13T16:43:41.271Z,6.80
2023-02-13T16:46:26.121Z,9.20
2023-02-13T16:49:26.239Z,15.00
2023-02-13T16:52:01.498Z,12.60
2023-02-13T16:54:38.247Z,14.40
2023-02-13T16:57:23.191Z,11.90
2023-02-13T17:00:02.720Z,11.20
2023-02-13T17:02:37.211Z,15.00
2023-02-13T17:05:22.390Z,17.20
2023-02-13T17:07:57.838Z,15.00
2023-02-13T17:10:33.991Z,7.80
2023-02-13T17:13:19.317Z,14.60
2023-02-13T17:15:52.306Z,21.90
2023-02-13T17:18:24.862Z,14.60
2023-02-13T17:20:57.848Z,11.30
2023-02-13T17:23:30.421Z,10.20
2023-02-13T17:26:02.792Z,7.00
2023-02-13T17:28:35.140Z,8.10
2023-02-13T17:49:12.485Z,5.70
2023-02-13T17:51:46.006Z,5.60
2023-02-13T17:54:18.408Z,5.80
2023-02-13T17:56:50.596Z,7.40
2023-02-13T17:59:25.262Z,6.90
2023-02-13T18:01:57.797Z,11.80
2023-02-13T18:04:30.112Z,20.40
2023-02-13T18:07:02.338Z,10.80
2023-02-13T18:09:34.661Z,13.50
2023-02-13T18:12:07.037Z,16.00
2023-02-13T18:14:39.176Z,8.40
2023-02-13T18:17:12.138Z,7.70
2023-02-13T18:19:44.568Z,6.70
2023-02-13T18:22:16.806Z,8.90
2023-02-13T18:24:49.284Z,9.00
2023-02-13T18:27:21.638Z,12.20
2023-02-13T18:29:55.305Z,8.40
2023-02-13T18:32:28.102Z,7.70
2023-02-13T18:35:00.440Z,7.90
2023-02-13T18:37:33.655Z,7.70
2023-02-13T18:40:06.602Z,14.80
2023-02-13T18:42:39.081Z,18.10
2023-02-13T18:45:13.224Z,12.80
2023-02-13T18:47:45.404Z,82.30
2023-02-13T18:50:17.778Z,51.00
2023-02-13T18:52:49.892Z,90.20
2023-02-13T18:55:22.216Z,50.10
2023-02-13T18:57:56.589Z,36.20
2023-02-13T19:00:29.246Z,28.60
2023-02-13T19:03:02.243Z,25.50
2023-02-13T19:05:34.541Z,20.10
2023-02-13T19:08:06.844Z,13.00
2023-02-13T19:10:39.089Z,24.80
2023-02-13T19:13:11.266Z,31.50
2023-02-13T19:15:43.647Z,27.50
2023-02-13T19:18:15.952Z,27.90
2023-02-13T19:20:48.172Z,25.50
2023-02-13T19:23:20.365Z,21.10
2023-02-13T19:25:52.638Z,33.70
2023-02-13T19:28:25.040Z,12.30
2023-02-13T19:31:02.619Z,19.40
2023-02-13T19:33:35.474Z,19.80
2023-02-13T19:36:11.959Z,22.30
2023-02-13T19:38:45.736Z,23.60
2023-02-13T19:41:19.219Z,18.10
2023-02-13T19:43:53.676Z,18.10
2023-02-13T19:46:28.439Z,26.00
2023-02-13T19:49:01.556Z,24.10
2023-02-13T19:51:35.599Z,35.10
2023-02-13T19:54:09.443Z,67.70
2023-02-13T19:56:42.105Z,21.20
2023-02-13T19:59:14.883Z,30.00
2023-02-13T20:01:47.359Z,26.60
2023-02-13T20:04:19.589Z,89.30
2023-02-13T20:06:57.726Z,210.80
2023-02-13T20:09:30.172Z,183.40
2023-02-13T20:12:03.119Z,118.20
2023-02-13T20:14:36.222Z,45.70
2023-02-13T20:17:08.952Z,60.80
2023-02-13T20:19:41.656Z,83.40
2023-02-13T20:22:16.766Z,86.20
2023-02-13T20:24:49.390Z,81.00
2023-02-13T20:27:23.238Z,87.40
2023-02-13T20:30:03.529Z,102.00
2023-02-13T20:32:39.990Z,36.00
2023-02-13T20:35:12.769Z,99.50
2023-02-13T20:37:45.827Z,32.90
2023-02-13T20:40:18.334Z,194.20
2023-02-13T20:42:50.988Z,64.30
2023-02-13T20:45:23.626Z,106.20
2023-02-13T20:47:55.806Z,77.50
2023-02-13T20:50:28.439Z,82.70
2023-02-13T20:53:01.419Z,62.90
2023-02-13T20:55:34.277Z,41.40
2023-02-13T20:58:06.474Z,38.00
2023-02-13T21:00:39.652Z,88.60
2023-02-13T21:03:12.012Z,119.10
2023-02-13T21:05:45.794Z,53.00
2023-02-13T21:08:18.148Z,78.30
2023-02-13T21:10:50.345Z,58.90
2023-02-13T21:13:23.757Z,34.70
2023-02-13T21:15:59.001Z,23.10
2023-02-13T21:18:32.020Z,51.30
2023-02-13T21:21:06.053Z,38.80
2023-02-13T21:23:38.426Z,30.50
2023-02-13T21:26:13.055Z,43.10
2023-02-13T21:28:47.649Z,30.60
2023-02-13T21:31:28.033Z,24.00
2023-02-13T21:34:06.829Z,31.70
2023-02-13T21:36:39.717Z,32.30
2023-02-13T21:39:13.531Z,19.30
2023-02-13T21:41:47.359Z,15.10
2023-02-13T21:44:19.792Z,35.20
2023-02-13T21:46:51.947Z,16.30
2023-02-13T21:49:25.211Z,13.30
2023-02-13T21:51:57.655Z,41.90
2023-02-13T21:54:30.287Z,25.60
2023-02-13T21:57:02.424Z,35.70
2023-02-13T21:59:35.258Z,24.20
2023-02-13T22:02:07.568Z,27.60
2023-02-13T22:04:41.516Z,33.50
2023-02-13T22:07:13.664Z,25.40
2023-02-13T22:09:45.828Z,15.10
2023-02-13T22:12:18.163Z,19.30
2023-02-13T22:14:50.393Z,12.40
2023-02-13T22:17:22.767Z,18.00
2023-02-13T22:19:54.986Z,27.70
2023-02-13T22:22:27.060Z,16.90
2023-02-13T22:24:59.217Z,12.00
2023-02-13T22:27:31.339Z,12.70
2023-02-13T22:30:03.604Z,11.00
2023-02-13T22:32:35.999Z,30.60
2023-02-13T22:35:09.678Z,28.40
2023-02-13T22:37:41.917Z,26.90
2023-02-13T22:40:15.149Z,25.80
2023-02-13T22:42:47.329Z,18.60
2023-02-13T22:45:19.789Z,17.50
2023-02-13T22:47:51.905Z,20.50
2023-02-13T22:50:24.638Z,22.40
2023-02-13T22:52:56.810Z,9.80
2023-02-13T22:55:29.487Z,15.30
2023-02-13T22:58:01.701Z,10.10
2023-02-13T23:00:34.153Z,8.60
2023-02-13T23:03:06.516Z,8.50
2023-02-13T23:05:41.814Z,8.00
2023-02-13T23:08:14.214Z,7.90
2023-02-13T23:11:07.508Z,8.80
2023-02-13T23:13:39.773Z,8.50
2023-02-13T23:16:16.361Z,9.00
2023-02-13T23:18:54.130Z,12.40
2023-02-13T23:21:27.165Z,11.00
2023-02-13T23:23:59.297Z,9.70
2023-02-13T23:26:31.652Z,9.00
2023-02-13T23:29:03.864Z,17.10
2023-02-13T23:31:36.145Z,12.80
2023-02-13T23:34:08.365Z,13.30
2023-02-13T23:36:40.547Z,9.40
2023-02-13T23:39:12.767Z,10.60
2023-02-13T23:41:45.065Z,9.00
2023-02-13T23:44:17.361Z,9.00
2023-02-13T23:46:49.699Z,7.70
2023-02-13T23:49:22.312Z,8.10
2023-02-13T23:51:54.711Z,8.30
2023-02-13T23:54:26.956Z,8.20
2023-02-13T23:56:59.479Z,8.90
2023-02-13T23:59:31.751Z,7.90
